createdAt,value
2019-05-26T00:01:07.561Z,10.86
2019-05-26T00:03:39.681Z,10.92
2019-05-26T00:06:11.449Z,10.94
2019-05-26T00:08:43.567Z,10.95
2019-05-26T00:11:15.569Z,10.82
2019-05-26T00:13:46.860Z,10.76
2019-05-26T00:16:18.612Z,10.82
2019-05-26T00:18:50.427Z,10.86
2019-05-26T00:21:22.054Z,10.92
2019-05-26T00:23:56.352Z,10.96
2019-05-26T00:26:27.986Z,10.94
2019-05-26T00:29:01.307Z,10.91
2019-05-26T00:31:34.771Z,10.93
2019-05-26T00:34:07.422Z,10.94
2019-05-26T00:36:40.804Z,10.97
2019-05-26T00:39:13.134Z,11.00
2019-05-26T00:41:45.746Z,11.04
2019-05-26T00:44:17.384Z,11.06
2019-05-26T00:46:48.679Z,11.06
2019-05-26T00:49:19.863Z,10.98
2019-05-26T00:51:51.555Z,11.01
2019-05-26T00:54:23.554Z,11.06
2019-05-26T00:56:55.909Z,11.12
2019-05-26T00:59:27.418Z,11.09
2019-05-26T01:01:59.169Z,11.08
2019-05-26T01:04:30.192Z,11.00
2019-05-26T01:07:02.594Z,11.00
2019-05-26T01:09:36.416Z,11.05
2019-05-26T01:12:08.209Z,11.05
2019-05-26T01:14:41.127Z,11.04
2019-05-26T01:17:14.457Z,11.08
2019-05-26T01:19:47.026Z,11.10
2019-05-26T01:22:19.887Z,11.15
2019-05-26T01:24:52.733Z,11.18
2019-05-26T01:27:24.431Z,11.11
2019-05-26T01:29:56.967Z,11.10
2019-05-26T01:32:29.495Z,11.11
2019-05-26T01:35:02.086Z,11.10
2019-05-26T01:37:33.964Z,11.10
2019-05-26T01:40:08.406Z,11.16
2019-05-26T01:42:39.779Z,11.16
2019-05-26T01:45:12.681Z,11.18
2019-05-26T01:47:45.576Z,11.16
2019-05-26T01:50:18.260Z,11.20
2019-05-26T01:52:50.188Z,11.25
2019-05-26T01:55:21.609Z,11.29
2019-05-26T01:57:53.139Z,11.34
2019-05-26T02:00:25.234Z,11.35
2019-05-26T02:02:56.660Z,11.39
2019-05-26T02:05:28.301Z,11.40
2019-05-26T02:08:00.443Z,11.43
2019-05-26T02:10:31.906Z,11.42
2019-05-26T02:13:03.941Z,11.51
2019-05-26T02:15:36.291Z,11.50
2019-05-26T02:18:08.697Z,11.46
2019-05-26T02:20:40.439Z,11.37
2019-05-26T02:23:12.414Z,11.35
2019-05-26T02:25:46.000Z,11.37
2019-05-26T02:28:18.813Z,11.37
2019-05-26T02:30:51.248Z,11.39
2019-05-26T02:33:23.230Z,11.46
2019-05-26T02:35:54.653Z,11.51
2019-05-26T02:38:26.809Z,11.57
2019-05-26T02:40:58.821Z,11.54
2019-05-26T02:43:30.666Z,11.52
2019-05-26T02:46:03.015Z,11.59
2019-05-26T02:48:35.011Z,11.65
2019-05-26T02:51:07.302Z,11.69
2019-05-26T02:53:38.584Z,11.72
2019-05-26T02:56:10.259Z,11.76
2019-05-26T02:58:42.065Z,11.76
2019-05-26T03:01:14.781Z,11.77
2019-05-26T03:03:47.287Z,11.79
2019-05-26T03:06:20.021Z,11.77
2019-05-26T03:08:54.301Z,11.78
2019-05-26T03:11:28.949Z,11.78
2019-05-26T03:14:03.630Z,11.80
2019-05-26T03:16:38.697Z,11.76
2019-05-26T03:19:13.453Z,11.84
2019-05-26T03:21:49.883Z,11.84
2019-05-26T03:24:23.532Z,11.77
2019-05-26T03:26:55.663Z,11.82
2019-05-26T03:29:27.227Z,11.81
2019-05-26T03:31:58.794Z,11.82
2019-05-26T03:34:31.135Z,11.82
2019-05-26T03:37:02.260Z,11.87
2019-05-26T03:39:44.808Z,11.82
2019-05-26T03:42:06.794Z,11.83
2019-05-26T03:44:38.613Z,11.80
2019-05-26T03:47:09.904Z,11.82
2019-05-26T03:49:41.997Z,11.83
2019-05-26T03:52:13.287Z,11.83
2019-05-26T03:54:44.999Z,11.90
2019-05-26T03:57:16.778Z,11.91
2019-05-26T03:59:49.170Z,11.91
2019-05-26T04:02:20.888Z,11.89
2019-05-26T04:04:52.665Z,11.85
2019-05-26T04:07:24.224Z,11.87
2019-05-26T04:10:04.738Z,11.93
2019-05-26T04:12:30.200Z,11.90
2019-05-26T04:15:02.786Z,11.93
2019-05-26T04:17:34.654Z,11.91
2019-05-26T04:20:07.389Z,11.91
2019-05-26T04:22:38.872Z,11.90
2019-05-26T04:25:11.909Z,11.89
2019-05-26T04:27:43.489Z,11.97
2019-05-26T04:30:15.868Z,12.05
2019-05-26T04:32:47.470Z,12.04
2019-05-26T04:35:20.054Z,12.05
2019-05-26T04:37:51.398Z,11.99
2019-05-26T04:40:26.972Z,12.04
2019-05-26T04:42:56.966Z,12.06
2019-05-26T04:45:28.589Z,12.04
2019-05-26T04:48:01.367Z,12.07
2019-05-26T04:50:37.103Z,12.16
2019-05-26T04:53:08.740Z,12.22
2019-05-26T04:55:40.629Z,12.24
2019-05-26T04:58:12.432Z,12.24
2019-05-26T05:00:45.569Z,12.27
2019-05-26T05:03:18.011Z,12.30
2019-05-26T05:05:50.327Z,12.30
2019-05-26T05:08:22.531Z,12.34
2019-05-26T05:10:54.021Z,12.37
2019-05-26T05:13:26.732Z,12.40
2019-05-26T05:15:58.849Z,12.39
2019-05-26T05:18:31.599Z,12.41
2019-05-26T05:21:03.174Z,12.39
2019-05-26T05:23:35.699Z,12.42
2019-05-26T05:26:07.465Z,12.51
2019-05-26T05:28:39.256Z,12.62
2019-05-26T05:31:11.472Z,12.76
2019-05-26T05:33:43.512Z,12.83
2019-05-26T05:36:15.164Z,12.84
2019-05-26T05:38:46.973Z,12.82
2019-05-26T05:41:19.014Z,12.70
2019-05-26T05:43:50.504Z,12.77
2019-05-26T05:46:22.353Z,12.73
2019-05-26T05:48:57.869Z,12.79
2019-05-26T05:51:30.166Z,12.79
2019-05-26T05:54:03.325Z,12.91
2019-05-26T05:56:35.303Z,13.03
2019-05-26T05:59:08.702Z,13.09
2019-05-26T06:01:40.705Z,13.14
2019-05-26T06:04:12.873Z,13.36
2019-05-26T06:06:45.191Z,13.53
2019-05-26T06:09:17.553Z,13.56
2019-05-26T06:11:53.257Z,13.57
2019-05-26T06:14:22.625Z,13.63
2019-05-26T06:16:54.592Z,13.75
2019-05-26T06:19:27.101Z,13.92
2019-05-26T06:21:58.416Z,13.94
2019-05-26T06:24:30.115Z,13.92
2019-05-26T06:27:03.471Z,13.99
2019-05-26T06:29:35.806Z,13.96
2019-05-26T06:32:07.251Z,13.96
2019-05-26T06:34:38.344Z,13.98
2019-05-26T06:37:09.318Z,14.11
2019-05-26T06:39:40.221Z,14.19
2019-05-26T06:42:13.062Z,14.19
2019-05-26T06:44:53.674Z,14.11
2019-05-26T06:47:18.827Z,14.18
2019-05-26T06:49:50.881Z,14.35
2019-05-26T06:52:23.642Z,14.49
2019-05-26T06:54:55.197Z,14.67
2019-05-26T06:57:27.510Z,14.82
2019-05-26T06:59:59.396Z,14.92
2019-05-26T07:02:30.897Z,15.05
2019-05-26T07:05:06.318Z,15.10
2019-05-26T07:07:38.036Z,15.16
2019-05-26T07:10:10.610Z,15.32
2019-05-26T07:12:50.997Z,15.44
2019-05-26T07:15:23.345Z,15.61
2019-05-26T07:18:02.660Z,15.69
2019-05-26T07:20:40.936Z,15.71
2019-05-26T07:23:12.323Z,15.66
2019-05-26T07:25:47.252Z,15.74
2019-05-26T07:28:21.964Z,15.71
2019-05-26T07:30:52.736Z,15.65
2019-05-26T07:33:23.759Z,15.62
2019-05-26T07:35:54.729Z,15.65
2019-05-26T07:38:25.679Z,15.67
2019-05-26T07:40:56.701Z,15.71
2019-05-26T07:43:28.335Z,15.84
2019-05-26T07:45:59.305Z,15.85
2019-05-26T07:48:30.529Z,15.94
2019-05-26T07:51:01.203Z,15.98
2019-05-26T07:53:32.535Z,16.18
2019-05-26T07:56:03.649Z,16.21
2019-05-26T07:58:34.500Z,16.20
2019-05-26T08:01:05.441Z,16.13
2019-05-26T08:03:36.922Z,16.26
2019-05-26T08:06:07.916Z,16.23
2019-05-26T08:08:38.720Z,16.19
2019-05-26T08:11:09.902Z,16.40
2019-05-26T08:13:40.090Z,16.52
2019-05-26T08:16:09.969Z,16.74
2019-05-26T08:19:19.831Z,16.64
2019-05-26T08:22:20.809Z,16.76
2019-05-26T08:24:55.171Z,16.86
2019-05-26T08:27:27.643Z,16.96
2019-05-26T08:30:01.320Z,17.13
2019-05-26T08:32:32.589Z,17.17
2019-05-26T08:35:04.654Z,17.25
2019-05-26T08:37:36.852Z,17.24
2019-05-26T08:40:11.359Z,17.36
2019-05-26T08:42:52.941Z,17.49
2019-05-26T08:45:33.368Z,17.31
2019-05-26T08:48:04.963Z,17.28
2019-05-26T08:50:35.898Z,17.14
2019-05-26T08:56:33.820Z,17.47
2019-05-26T08:59:04.803Z,17.53
2019-05-26T09:01:36.372Z,17.65
2019-05-26T09:04:08.420Z,17.88
2019-05-26T09:06:39.955Z,17.94
2019-05-26T09:09:11.446Z,18.08
2019-05-26T09:11:44.462Z,18.11
2019-05-26T09:14:16.182Z,18.16
2019-05-26T09:16:49.629Z,18.07
2019-05-26T09:19:22.049Z,18.08
2019-05-26T09:21:53.942Z,18.05
2019-05-26T09:24:26.190Z,18.15
2019-05-26T09:26:57.962Z,18.15
2019-05-26T09:29:29.444Z,18.16
2019-05-26T09:32:02.012Z,18.26
2019-05-26T09:34:35.146Z,18.40
2019-05-26T09:37:07.451Z,18.57
2019-05-26T09:39:39.481Z,18.73
2019-05-26T09:42:11.165Z,18.81
2019-05-26T09:44:43.124Z,19.03
2019-05-26T09:47:15.284Z,19.01
2019-05-26T09:49:47.750Z,19.25
2019-05-26T09:52:19.997Z,19.16
2019-05-26T09:54:50.982Z,19.05
2019-05-26T09:57:23.690Z,18.94
2019-05-26T09:59:59.180Z,18.93
2019-05-26T10:02:51.576Z,19.16
2019-05-26T10:05:29.255Z,19.22
2019-05-26T10:08:02.177Z,19.35
2019-05-26T10:10:45.575Z,19.41
2019-05-26T10:13:31.684Z,19.49
2019-05-26T10:16:03.545Z,19.42
2019-05-26T10:18:34.914Z,19.41
2019-05-26T10:21:07.319Z,19.43
2019-05-26T10:23:39.127Z,19.48
2019-05-26T10:26:11.186Z,19.56
2019-05-26T10:28:43.765Z,19.93
2019-05-26T10:31:15.896Z,20.16
2019-05-26T10:33:47.251Z,20.20
2019-05-26T10:36:19.279Z,20.14
2019-05-26T10:38:52.699Z,20.20
2019-05-26T10:41:25.193Z,20.41
2019-05-26T10:43:58.259Z,20.31
2019-05-26T10:46:30.111Z,20.37
2019-05-26T10:49:02.131Z,20.18
2019-05-26T10:51:35.335Z,20.13
2019-05-26T10:54:08.260Z,20.20
2019-05-26T10:56:39.946Z,20.39
2019-05-26T10:59:11.872Z,20.04
2019-05-26T11:01:44.173Z,19.97
2019-05-26T11:04:15.492Z,20.05
2019-05-26T11:06:47.769Z,20.12
2019-05-26T11:09:20.264Z,20.26
2019-05-26T11:11:52.903Z,20.52
2019-05-26T11:14:24.438Z,20.61
2019-05-26T11:16:56.349Z,20.53
2019-05-26T11:19:27.633Z,20.45
2019-05-26T11:21:59.666Z,20.33
2019-05-26T11:24:31.946Z,20.46
2019-05-26T11:27:09.539Z,20.46
2019-05-26T11:29:38.430Z,20.45
2019-05-26T11:32:11.253Z,20.67
2019-05-26T11:34:43.783Z,20.61
2019-05-26T11:37:16.515Z,20.82
2019-05-26T11:39:49.034Z,20.93
2019-05-26T11:42:22.305Z,20.89
2019-05-26T11:44:54.547Z,21.18
2019-05-26T11:47:27.898Z,21.25
2019-05-26T11:50:00.187Z,21.02
2019-05-26T11:52:32.294Z,21.27
2019-05-26T11:55:05.222Z,21.27
2019-05-26T11:57:38.617Z,21.32
2019-05-26T12:00:13.492Z,21.08
2019-05-26T12:02:47.518Z,21.30
2019-05-26T12:05:24.656Z,21.12
2019-05-26T12:07:55.683Z,21.22
2019-05-26T12:10:40.858Z,21.38
2019-05-26T12:13:21.126Z,21.66
2019-05-26T12:15:52.327Z,21.58
2019-05-26T12:18:23.447Z,21.44
2019-05-26T12:23:49.892Z,21.34
2019-05-26T12:26:22.497Z,21.21
2019-05-26T12:28:54.858Z,21.30
2019-05-26T12:31:26.778Z,21.32
2019-05-26T12:34:12.702Z,21.59
2019-05-26T12:36:47.537Z,21.60
2019-05-26T12:39:24.689Z,21.63
2019-05-26T12:42:18.623Z,21.81
2019-05-26T12:45:01.074Z,21.87
2019-05-26T12:47:35.663Z,22.14
2019-05-26T12:50:13.468Z,21.90
2019-05-26T12:52:46.498Z,21.90
2019-05-26T12:55:22.125Z,21.66
2019-05-26T12:57:53.705Z,21.57
2019-05-26T13:01:23.888Z,21.48
2019-05-26T13:04:35.174Z,21.63
2019-05-26T13:10:13.289Z,22.22
2019-05-26T13:13:00.865Z,22.23
2019-05-26T13:23:27.731Z,21.96
2019-05-26T13:26:42.757Z,21.90
2019-05-26T13:29:29.705Z,21.89
2019-05-26T13:32:01.147Z,22.07
2019-05-26T13:34:41.646Z,22.16
2019-05-26T13:37:15.306Z,22.25
2019-05-26T13:43:25.166Z,22.35
2019-05-26T13:45:57.356Z,22.36
2019-05-26T13:48:29.505Z,22.46
2019-05-26T13:54:39.464Z,22.38
2019-05-26T13:57:21.152Z,22.49
2019-05-26T13:59:51.411Z,22.65
2019-05-26T14:02:22.315Z,22.74
2019-05-26T14:04:57.020Z,22.81
2019-05-26T14:07:30.724Z,22.82
2019-05-26T14:10:01.527Z,22.75
2019-05-26T14:12:37.050Z,22.84
2019-05-26T14:15:11.405Z,22.92
2019-05-26T14:17:48.373Z,23.11
2019-05-26T14:20:45.885Z,23.08
2019-05-26T14:23:44.291Z,23.10
2019-05-26T14:26:29.652Z,23.09
2019-05-26T14:29:01.703Z,22.92
2019-05-26T14:31:32.608Z,22.77
2019-05-26T14:34:03.625Z,22.90
2019-05-26T14:36:34.665Z,22.84
2019-05-26T14:39:28.485Z,22.62
2019-05-26T14:41:59.700Z,22.60
2019-05-26T14:44:30.747Z,22.58
2019-05-26T14:47:01.691Z,22.59
2019-05-26T14:49:33.150Z,22.66
2019-05-26T14:52:03.489Z,22.62
2019-05-26T14:54:34.119Z,22.42
2019-05-26T14:57:05.355Z,22.37
2019-05-26T14:59:36.834Z,22.31
2019-05-26T15:02:07.122Z,22.38
2019-05-26T15:04:38.130Z,22.29
2019-05-26T15:07:08.804Z,22.46
2019-05-26T15:09:40.324Z,22.63
2019-05-26T15:12:10.758Z,22.79
2019-05-26T15:14:41.307Z,22.94
2019-05-26T15:17:11.953Z,23.09
2019-05-26T15:19:43.595Z,23.16
2019-05-26T15:22:15.195Z,22.97
2019-05-26T15:24:47.689Z,22.76
2019-05-26T15:27:20.125Z,22.65
2019-05-26T15:29:52.109Z,22.55
2019-05-26T15:32:22.811Z,22.63
2019-05-26T15:34:53.627Z,22.82
2019-05-26T15:37:26.638Z,22.88
2019-05-26T15:39:58.921Z,22.86
2019-05-26T15:42:32.241Z,23.03
2019-05-26T15:45:04.503Z,23.25
2019-05-26T15:47:36.608Z,23.28
2019-05-26T15:50:08.667Z,23.18
2019-05-26T15:52:40.704Z,23.02
2019-05-26T15:55:14.341Z,22.88
2019-05-26T15:57:47.377Z,22.81
2019-05-26T16:00:22.695Z,22.66
2019-05-26T16:02:54.103Z,22.53
2019-05-26T16:05:25.563Z,22.42
2019-05-26T16:07:57.384Z,22.23
2019-05-26T16:10:28.641Z,22.18
2019-05-26T16:12:59.903Z,22.14
2019-05-26T16:15:31.389Z,22.02
2019-05-26T16:18:03.145Z,21.94
2019-05-26T16:20:35.067Z,21.98
2019-05-26T16:23:08.869Z,21.98
2019-05-26T16:25:39.835Z,21.93
2019-05-26T16:28:12.486Z,21.90
2019-05-26T16:30:44.240Z,21.95
2019-05-26T16:33:15.899Z,22.04
2019-05-26T16:35:48.404Z,22.05
2019-05-26T16:38:20.619Z,22.08
2019-05-26T16:40:53.120Z,22.03
2019-05-26T16:43:24.881Z,22.02
2019-05-26T16:45:57.779Z,21.96
2019-05-26T16:48:30.123Z,21.99
2019-05-26T16:51:02.021Z,21.95
2019-05-26T16:53:33.599Z,21.91
2019-05-26T16:56:05.097Z,21.82
2019-05-26T16:58:35.836Z,21.80
2019-05-26T17:01:06.666Z,21.85
2019-05-26T17:03:37.509Z,21.85
2019-05-26T17:06:08.490Z,21.81
2019-05-26T17:08:39.463Z,21.87
2019-05-26T17:11:10.212Z,21.85
2019-05-26T17:13:41.839Z,21.91
2019-05-26T17:16:13.769Z,21.90
2019-05-26T17:18:44.625Z,21.93
2019-05-26T17:21:15.600Z,21.92
2019-05-26T17:23:46.450Z,21.91
2019-05-26T17:26:17.349Z,21.84
2019-05-26T17:28:49.821Z,21.88
2019-05-26T17:31:21.747Z,21.82
2019-05-26T17:33:52.981Z,21.80
2019-05-26T17:36:23.992Z,21.80
2019-05-26T17:38:56.026Z,21.66
2019-05-26T17:41:27.387Z,21.57
2019-05-26T17:43:59.360Z,21.52
2019-05-26T17:46:31.151Z,21.47
2019-05-26T17:49:03.431Z,21.45
2019-05-26T17:51:35.190Z,21.31
2019-05-26T17:54:07.736Z,21.27
2019-05-26T17:56:39.974Z,21.20
2019-05-26T17:59:11.592Z,21.13
2019-05-26T18:01:43.740Z,21.08
2019-05-26T18:04:15.204Z,21.07
2019-05-26T18:06:47.618Z,21.04
2019-05-26T18:09:19.433Z,20.96
2019-05-26T18:11:52.426Z,20.91
2019-05-26T18:14:25.195Z,20.85
2019-05-26T18:16:57.668Z,20.76
2019-05-26T18:19:30.285Z,20.65
2019-05-26T18:22:39.160Z,20.61
2019-05-26T18:25:14.560Z,20.59
2019-05-26T18:28:27.519Z,20.58
2019-05-26T18:31:28.794Z,20.54
2019-05-26T18:34:11.461Z,20.47
2019-05-26T18:36:53.843Z,20.37
2019-05-26T18:39:30.207Z,20.30
2019-05-26T18:42:22.121Z,20.24
2019-05-26T18:45:12.821Z,20.19
2019-05-26T18:48:06.767Z,20.12
2019-05-26T18:50:50.877Z,20.03
2019-05-26T18:53:37.538Z,19.86
2019-05-26T18:56:30.053Z,19.81
2019-05-26T18:59:07.241Z,19.72
2019-05-26T19:01:53.385Z,19.65
2019-05-26T19:04:53.896Z,19.63
2019-05-26T19:07:36.361Z,19.66
2019-05-26T19:10:35.191Z,19.58
2019-05-26T19:24:13.855Z,19.42
2019-05-26T19:26:58.030Z,19.38
2019-05-26T19:29:47.871Z,19.30
2019-05-26T19:32:29.488Z,19.24
2019-05-26T19:35:03.689Z,19.18
2019-05-26T19:37:35.092Z,19.14
2019-05-26T19:40:07.070Z,19.13
2019-05-26T19:42:39.055Z,19.14
2019-05-26T19:45:10.672Z,19.12
2019-05-26T19:47:42.927Z,19.10
2019-05-26T19:50:34.706Z,19.05
2019-05-26T19:53:34.511Z,19.02
2019-05-26T19:56:31.401Z,18.96
2019-05-26T20:00:01.518Z,18.88
2019-05-26T20:03:04.748Z,18.80
2019-05-26T20:05:53.558Z,18.67
2019-05-26T20:08:42.193Z,18.70
2019-05-26T20:15:39.813Z,18.72
2019-05-26T20:18:20.533Z,18.68
2019-05-26T20:20:55.039Z,18.65
2019-05-26T20:23:44.342Z,18.66
2019-05-26T20:26:54.536Z,18.61
2019-05-26T20:29:35.077Z,18.57
2019-05-26T20:32:15.724Z,18.55
2019-05-26T20:34:54.367Z,18.46
2019-05-26T20:37:26.957Z,18.42
2019-05-26T20:40:01.568Z,18.36
2019-05-26T20:46:19.895Z,18.37
2019-05-26T20:48:51.254Z,18.40
2019-05-26T20:51:21.332Z,18.42
2019-05-26T20:53:52.930Z,18.46
2019-05-26T20:56:23.788Z,18.47
2019-05-26T20:58:54.478Z,18.50
2019-05-26T21:01:25.239Z,18.46
2019-05-26T21:03:55.994Z,18.49
2019-05-26T21:06:27.050Z,18.47
2019-05-26T21:08:58.596Z,18.47
2019-05-26T21:11:29.579Z,18.34
2019-05-26T21:14:01.541Z,18.30
2019-05-26T21:16:32.054Z,18.24
2019-05-26T21:19:03.882Z,18.15
2019-05-26T21:21:41.912Z,18.07
2019-05-26T21:24:17.687Z,18.03
2019-05-26T21:26:52.229Z,17.98
2019-05-26T21:29:22.655Z,17.90
2019-05-26T21:31:59.342Z,17.84
2019-05-26T21:34:35.714Z,17.70
2019-05-26T21:37:07.969Z,17.65
2019-05-26T21:39:39.355Z,17.59
2019-05-26T21:42:16.053Z,17.54
2019-05-26T21:44:49.592Z,17.47
2019-05-26T21:47:21.709Z,17.40
2019-05-26T21:49:57.310Z,17.32
2019-05-26T21:52:38.827Z,17.31
2019-05-26T21:55:11.066Z,17.34
2019-05-26T21:57:42.517Z,17.25
2019-05-26T22:00:17.293Z,17.18
2019-05-26T22:02:50.520Z,17.11
2019-05-26T22:05:22.563Z,17.07
2019-05-26T22:07:54.905Z,17.01
2019-05-26T22:10:27.087Z,17.02
2019-05-26T22:13:01.040Z,16.94
2019-05-26T22:15:36.726Z,16.93
2019-05-26T22:18:08.441Z,16.88
2019-05-26T22:20:40.781Z,16.89
2019-05-26T22:23:12.319Z,16.78
2019-05-26T22:25:43.621Z,16.77
2019-05-26T22:28:15.767Z,16.74
2019-05-26T22:30:46.922Z,16.73
2019-05-26T22:33:20.054Z,16.72
2019-05-26T22:35:51.933Z,16.68
2019-05-26T22:38:24.512Z,16.65
2019-05-26T22:40:56.599Z,16.63
2019-05-26T22:43:29.279Z,16.63
2019-05-26T22:46:01.653Z,16.63
2019-05-26T22:48:33.629Z,16.60
2019-05-26T22:51:04.735Z,16.51
2019-05-26T22:53:36.841Z,16.44
2019-05-26T22:56:07.977Z,16.37
2019-05-26T22:58:39.076Z,16.33
2019-05-26T23:01:10.077Z,16.29
2019-05-26T23:03:42.904Z,16.24
2019-05-26T23:06:15.431Z,16.26
2019-05-26T23:08:48.031Z,16.23
2019-05-26T23:11:21.013Z,16.20
2019-05-26T23:13:55.424Z,16.18
2019-05-26T23:16:29.391Z,16.15
2019-05-26T23:19:01.506Z,16.12
2019-05-26T23:21:35.030Z,16.06
2019-05-26T23:24:08.548Z,16.02
2019-05-26T23:26:41.347Z,16.00
2019-05-26T23:29:14.750Z,16.02
2019-05-26T23:31:47.595Z,16.03
2019-05-26T23:34:21.044Z,16.00
2019-05-26T23:36:53.750Z,15.93
2019-05-26T23:39:27.258Z,15.90
2019-05-26T23:42:01.115Z,15.85
2019-05-26T23:44:34.554Z,15.81
2019-05-26T23:47:07.894Z,15.76
2019-05-26T23:49:40.239Z,15.74
2019-05-26T23:52:14.479Z,15.73
2019-05-26T23:54:46.064Z,15.79
2019-05-26T23:57:18.622Z,15.78
2019-05-26T23:59:50.259Z,15.72
